Time;durP1;ratioP1;P1;durP2;ratioP2;P2;SDS_P1;SDS_P2;PMS_P1;PMS_P2;Temp;Humidity;BMP_temperature;BMP_pressure;BME280_temperature;BME280_humidity;BME280_pressure;Samples;Min_cycle;Max_cycle;Signal;HPM_P1;HPM_P2
2022/10/01 00:00:49;;;;;;;9.85;5.60;;;;;;;-146.58;100.00;69501.63;4992441;28;20034;-61
2022/10/01 00:03:14;;;;;;;9.57;7.05;;;;;;;-146.58;100.00;69501.63;4992775;28;20374;-61
2022/10/01 00:05:40;;;;;;;7.10;6.40;;;;;;;-146.58;100.00;69501.63;4991298;28;20038;-61
2022/10/01 00:08:05;;;;;;;6.65;5.65;;;;;;;-146.58;100.00;69501.63;4991676;28;20081;-61
2022/10/01 00:10:31;;;;;;;6.53;5.93;;;;;;;-146.58;100.00;69501.63;4990996;28;20429;-61
2022/10/01 00:12:57;;;;;;;17.10;6.95;;;;;;;-146.58;100.00;69501.63;4992800;28;20027;-60
2022/10/01 00:15:25;;;;;;;7.47;6.88;;;;;;;-146.58;100.00;69501.63;4990720;28;20038;-60
2022/10/01 00:17:50;;;;;;;7.43;6.72;;;;;;;-146.58;100.00;69501.63;4992761;28;20037;-60
2022/10/01 00:20:17;;;;;;;12.32;9.48;;;;;;;-146.58;100.00;69501.63;4990821;28;20406;-60
2022/10/01 00:22:42;;;;;;;8.25;7.45;;;;;;;-146.58;100.00;69501.63;4991922;28;20057;-63
2022/10/01 00:25:07;;;;;;;10.73;7.55;;;;;;;-146.58;100.00;69501.63;4990597;28;20042;-62
2022/10/01 00:27:34;;;;;;;15.45;8.20;;;;;;;-146.58;100.00;69501.63;4992771;28;20030;-63
2022/10/01 00:29:59;;;;;;;9.50;7.97;;;;;;;-146.58;100.00;69501.63;4990672;28;20039;-62
2022/10/01 00:32:24;;;;;;;13.85;8.90;;;;;;;-146.58;100.00;69501.63;4991920;28;20069;-63
2022/10/01 00:34:50;;;;;;;11.43;8.98;;;;;;;-146.58;100.00;69501.63;4990785;28;20054;-62
2022/10/01 00:37:17;;;;;;;12.48;9.20;;;;;;;-146.58;100.00;69501.63;4991529;28;20064;-63
2022/10/01 00:39:43;;;;;;;13.88;8.65;;;;;;;-146.58;100.00;69501.63;4990426;28;20066;-63
2022/10/01 00:42:16;;;;;;;10.45;9.10;;;;;;;-146.58;100.00;69501.63;4992230;28;20363;-62
2022/10/01 00:44:42;;;;;;;16.45;9.73;;;;;;;-146.58;100.00;69501.63;4990376;28;20490;-63
2022/10/01 00:47:34;;;;;;;11.25;9.90;;;;;;;-146.58;100.00;69501.63;4992046;28;20054;-63
2022/10/01 00:50:12;;;;;;;12.30;10.98;;;;;;;-146.58;100.00;69501.63;4990398;28;20050;-63
2022/10/01 00:52:40;;;;;;;22.40;10.35;;;;;;;-146.58;100.00;69501.63;4992010;28;20033;-63
2022/10/01 00:55:13;;;;;;;13.70;11.32;;;;;;;-146.58;100.00;69501.63;4990148;28;20046;-63
2022/10/01 00:57:40;;;;;;;11.73;10.52;;;;;;;-146.58;100.00;69501.63;4991580;28;20029;-63
2022/10/01 01:00:08;;;;;;;18.35;10.85;;;;;;;-146.58;100.00;69501.63;4989953;28;20048;-63
2022/10/01 01:02:33;;;;;;;12.40;11.20;;;;;;;-146.58;100.00;69501.63;4991917;28;20038;-62
2022/10/01 01:05:00;;;;;;;14.10;12.63;;;;;;;-146.58;100.00;69501.63;4990154;28;20050;-63
2022/10/01 01:07:27;;;;;;;13.68;10.68;;;;;;;-146.58;100.00;69501.63;4991541;28;20036;-62
2022/10/01 01:09:53;;;;;;;13.40;10.75;;;;;;;-146.58;100.00;69501.63;4990442;28;20042;-63
2022/10/01 01:12:56;;;;;;;12.63;10.50;;;;;;;-146.58;100.00;69501.63;4991411;28;20026;-63
2022/10/01 01:15:37;;;;;;;15.38;12.80;;;;;;;-146.58;100.00;69501.63;4990109;28;20054;-63
2022/10/01 01:18:16;;;;;;;11.65;10.57;;;;;;;-146.58;100.00;69501.63;4991233;28;20054;-62
2022/10/01 01:20:50;;;;;;;;;;;;;;;-146.58;100.00;69501.63;4990232;28;20574;-62
2022/10/01 01:23:15;;;;;;;24.55;13.30;;;;;;;-146.58;100.00;69501.63;4989956;28;19916;-63
2022/10/01 01:26:04;;;;;;;15.32;13.73;;;;;;;-146.58;100.00;69501.63;4991699;28;20026;-63
2022/10/01 01:28:36;;;;;;;13.50;12.18;;;;;;;-146.58;100.00;69501.63;4989857;28;20092;-64
2022/10/01 01:31:09;;;;;;;13.98;12.40;;;;;;;-146.58;100.00;69501.63;4991111;28;20075;-64
2022/10/01 01:33:38;;;;;;;14.27;12.48;;;;;;;-146.58;100.00;69501.63;4990195;28;20502;-64
2022/10/01 01:36:09;;;;;;;16.27;14.55;;;;;;;-146.58;100.00;69501.63;4990758;28;20068;-62
2022/10/01 01:38:41;;;;;;;15.65;12.98;;;;;;;-146.58;100.00;69501.63;4990073;28;20722;-62
2022/10/01 01:41:11;;;;;;;14.55;12.63;;;;;;;-146.58;100.00;69501.63;4991002;28;20026;-62
2022/10/01 01:43:43;;;;;;;14.52;12.75;;;;;;;-146.58;100.00;69501.63;4989701;28;20069;-62
2022/10/01 01:46:11;;;;;;;13.27;11.90;;;;;;;-146.58;100.00;69501.63;4991215;28;20033;-62
2022/10/01 01:48:40;;;;;;;23.45;13.95;;;;;;;-146.58;100.00;69501.63;4990974;28;20517;-61
2022/10/01 01:51:15;;;;;;;15.65;14.13;;;;;;;-146.58;100.00;69501.63;4994749;28;20025;-61
2022/10/01 01:53:41;;;;;;;20.90;13.27;;;;;;;-146.58;100.00;69501.63;4993763;28;20043;-61
2022/10/01 01:56:06;;;;;;;14.48;12.90;;;;;;;-146.58;100.00;69501.63;4994985;28;20532;-61
2022/10/01 01:58:34;;;;;;;24.38;14.05;;;;;;;-146.58;100.00;69501.63;4993356;28;20417;-61
2022/10/01 02:01:00;;;;;;;16.58;14.85;;;;;;;-146.58;100.00;69501.63;4994801;28;20093;-61
2022/10/01 02:03:28;;;;;;;14.75;13.07;;;;;;;-146.58;100.00;69501.63;4993549;28;20113;-61
2022/10/01 02:06:02;;;;;;;15.10;13.55;;;;;;;-146.58;100.00;69501.63;4994803;28;20022;-61
2022/10/01 02:09:22;;;;;;;30.77;15.27;;;;;;;-146.58;100.00;69501.63;4993699;28;20033;-61
2022/10/01 02:12:16;;;;;;;14.48;12.35;;;;;;;-146.58;100.00;69501.63;4972386;28;20031;-61
2022/10/01 02:15:24;;;;;;;14.30;12.85;;;;;;;-146.58;100.00;69501.63;4993053;28;20072;-61
2022/10/01 02:18:08;;;;;;;19.00;13.07;;;;;;;-146.58;100.00;69501.63;4981192;28;20026;-60
2022/10/01 02:20:55;;;;;;;13.95;12.68;;;;;;;-146.58;100.00;69501.63;4992891;28;20509;-61
2022/10/01 02:23:32;;;;;;;15.77;14.18;;;;;;;-146.58;100.00;69501.63;4992972;28;20028;-62
2022/10/01 02:26:03;;;;;;;13.98;12.07;;;;;;;-146.58;100.00;69501.63;4994370;28;20026;-61
2022/10/01 02:28:32;;;;;;;13.18;11.80;;;;;;;-146.58;100.00;69501.63;4992956;28;20026;-61
2022/10/01 02:30:59;;;;;;;19.77;12.48;;;;;;;-146.58;100.00;69501.63;4994196;28;20058;-61
2022/10/01 02:33:29;;;;;;;13.45;11.93;;;;;;;-146.58;100.00;69501.63;4992806;28;20561;-61
2022/10/01 02:35:58;;;;;;;13.43;12.05;;;;;;;-146.58;100.00;69501.63;4994061;28;20030;-61
2022/10/01 02:38:25;;;;;;;16.00;12.63;;;;;;;-146.58;100.00;69501.63;4992747;28;20466;-61
2022/10/01 02:40:55;;;;;;;14.55;11.93;;;;;;;-146.58;100.00;69501.63;4993872;28;20092;-60
2022/10/01 02:43:31;;;;;;;16.35;11.82;;;;;;;-146.58;100.00;69501.63;4992271;28;20092;-60
2022/10/01 02:46:05;;;;;;;20.25;11.70;;;;;;;-146.58;100.00;69501.63;4994007;28;20058;-60
2022/10/01 02:48:31;;;;;;;12.57;11.38;;;;;;;-146.58;100.00;69501.63;4992591;28;20509;-60
2022/10/01 02:51:08;;;;;;;12.68;11.20;;;;;;;-146.58;100.00;69501.63;4994012;28;20102;-62
2022/10/01 02:53:41;;;;;;;12.73;11.43;;;;;;;-146.58;100.00;69501.63;4992557;28;20501;-61
2022/10/01 02:56:07;;;;;;;15.52;12.40;;;;;;;-146.58;100.00;69501.63;4993412;28;20528;-62
2022/10/01 02:58:34;;;;;;;13.85;12.20;;;;;;;-146.58;100.00;69501.63;4992600;28;20042;-61
2022/10/01 03:00:59;;;;;;;13.48;11.52;;;;;;;-146.58;100.00;69501.63;4992930;28;20057;-61
2022/10/01 03:03:26;;;;;;;12.65;11.38;;;;;;;-146.58;100.00;69501.63;4991642;28;20018;-61
2022/10/01 03:05:51;;;;;;;12.18;10.93;;;;;;;-146.58;100.00;69501.63;4994050;28;20037;-61
2022/10/01 03:08:18;;;;;;;10.02;9.13;;;;;;;-146.58;100.00;69501.63;4992176;28;20026;-60
2022/10/01 03:10:43;;;;;;;12.48;11.23;;;;;;;-146.58;100.00;69501.63;4993695;28;20053;-62
2022/10/01 03:13:08;;;;;;;12.75;11.52;;;;;;;-146.58;100.00;69501.63;4993450;28;20029;-61
2022/10/01 03:15:34;;;;;;;12.07;10.07;;;;;;;-146.58;100.00;69501.63;4991730;28;20633;-61
2022/10/01 03:17:59;;;;;;;11.13;10.10;;;;;;;-146.58;100.00;69501.63;4993503;28;20384;-60
2022/10/01 03:20:25;;;;;;;12.48;9.85;;;;;;;-146.58;100.00;69501.63;4991727;28;20053;-60
2022/10/01 03:22:51;;;;;;;9.45;8.55;;;;;;;-146.58;100.00;69501.63;4993908;28;20022;-60
2022/10/01 03:25:16;;;;;;;12.80;9.20;;;;;;;-146.58;100.00;69501.63;4991892;28;20038;-60
2022/10/01 03:27:42;;;;;;;9.70;8.60;;;;;;;-146.58;100.00;69501.63;4992618;28;20482;-61
2022/10/01 03:30:08;;;;;;;11.05;8.52;;;;;;;-146.58;100.00;69501.63;4991370;28;20042;-61
2022/10/01 03:32:34;;;;;;;9.13;8.43;;;;;;;-146.58;100.00;69501.63;4992968;28;20050;-61
2022/10/01 03:34:59;;;;;;;9.45;8.48;;;;;;;-146.58;100.00;69501.63;4991727;28;20498;-62
2022/10/01 03:37:24;;;;;;;14.88;8.57;;;;;;;-146.58;100.00;69501.63;4993242;28;20029;-62
2022/10/01 03:39:50;;;;;;;10.48;8.23;;;;;;;-146.58;100.00;69501.63;4991698;28;20042;-62
2022/10/01 03:42:15;;;;;;;8.50;7.80;;;;;;;-146.58;100.00;69501.63;4992707;28;20025;-62
2022/10/01 03:44:41;;;;;;;8.85;7.90;;;;;;;-146.58;100.00;69501.63;4991687;28;20049;-62
2022/10/01 03:47:07;;;;;;;8.90;8.02;;;;;;;-146.58;100.00;69501.63;4992871;28;20022;-62
2022/10/01 03:49:33;;;;;;;7.45;6.55;;;;;;;-146.58;100.00;69501.63;4991136;28;20143;-62
2022/10/01 03:51:58;;;;;;;8.95;7.80;;;;;;;-146.58;100.00;69501.63;4992987;28;20030;-62
2022/10/01 03:54:25;;;;;;;8.45;7.65;;;;;;;-146.58;100.00;69501.63;4991216;28;20529;-61
2022/10/01 03:56:51;;;;;;;7.53;6.78;;;;;;;-146.58;100.00;69501.63;4992463;28;20592;-61
2022/10/01 03:59:16;;;;;;;6.50;5.95;;;;;;;-146.58;100.00;69501.63;4991235;28;20049;-62
2022/10/01 04:01:42;;;;;;;8.07;7.38;;;;;;;-146.58;100.00;69501.63;4992824;28;20026;-62
2022/10/01 04:04:07;;;;;;;7.38;6.70;;;;;;;-146.58;100.00;69501.63;4990897;28;20401;-62
2022/10/01 04:06:33;;;;;;;8.48;5.90;;;;;;;-146.58;100.00;69501.63;4992771;28;20462;-62
2022/10/01 04:08:58;;;;;;;6.70;6.20;;;;;;;-146.58;100.00;69501.63;4991335;28;20042;-62
2022/10/01 04:11:24;;;;;;;5.72;5.22;;;;;;;-146.58;100.00;69501.63;4991922;28;20062;-62
2022/10/01 04:13:49;;;;;;;6.10;5.60;;;;;;;-146.58;100.00;69501.63;4991487;28;20030;-61
2022/10/01 04:16:15;;;;;;;5.53;5.03;;;;;;;-146.58;100.00;69501.63;4991920;28;20035;-61
2022/10/01 04:18:40;;;;;;;7.65;4.90;;;;;;;-146.58;100.00;69501.63;4990516;28;20046;-62
2022/10/01 04:21:06;;;;;;;5.78;4.38;;;;;;;-146.58;100.00;69501.63;4992223;28;20418;-62
2022/10/01 04:23:31;;;;;;;4.63;4.22;;;;;;;-146.58;100.00;69501.63;4991198;28;20022;-62
2022/10/01 04:26:04;;;;;;;4.20;3.90;;;;;;;-146.58;100.00;69501.63;4991965;28;20492;-62
2022/10/01 04:28:30;;;;;;;5.80;4.30;;;;;;;-146.58;100.00;69501.63;4990596;28;20030;-61
2022/10/01 04:33:40;;;;;;;6.93;4.50;;;;;;;-146.58;100.00;69501.63;4992025;28;20037;-61
2022/10/01 04:36:05;;;;;;;4.43;4.05;;;;;;;-146.58;100.00;69501.63;4990606;28;20046;-61
2022/10/01 04:38:31;;;;;;;4.40;4.10;;;;;;;-146.58;100.00;69501.63;4992108;28;20041;-60
2022/10/01 04:40:56;;;;;;;4.93;4.53;;;;;;;-146.58;100.00;69501.63;4990385;28;20062;-60
2022/10/01 04:43:21;;;;;;;3.95;3.72;;;;;;;-146.58;100.00;69501.63;4991815;28;20382;-59
2022/10/01 04:45:47;;;;;;;4.53;3.65;;;;;;;-146.58;100.00;69501.63;4990631;28;20069;-59
2022/10/01 04:48:12;;;;;;;5.13;4.70;;;;;;;-146.58;100.00;69501.63;4991266;28;20034;-59
2022/10/01 04:50:37;;;;;;;3.70;3.40;;;;;;;-146.58;100.00;69501.63;4990556;28;20049;-59
2022/10/01 04:53:03;;;;;;;4.00;3.72;;;;;;;-146.58;100.00;69501.63;4991661;28;20030;-60
2022/10/01 04:55:28;;;;;;;4.55;4.15;;;;;;;-146.58;100.00;69501.63;4990278;28;20039;-62
2022/10/01 04:57:53;;;;;;;5.00;3.63;;;;;;;-146.58;100.00;69501.63;4991219;28;20030;-62
2022/10/01 05:00:23;;;;;;;5.30;4.72;;;;;;;-146.58;100.00;69501.63;4990092;28;20045;-62
2022/10/01 05:02:49;;;;;;;4.28;3.92;;;;;;;-146.58;100.00;69501.63;4991642;28;20535;-62
2022/10/01 05:05:16;;;;;;;3.83;3.58;;;;;;;-146.58;100.00;69501.63;4990264;28;20042;-62
2022/10/01 05:07:42;;;;;;;4.80;4.40;;;;;;;-146.58;100.00;69501.63;4991819;28;20022;-62
2022/10/01 05:10:11;;;;;;;4.88;4.47;;;;;;;-146.58;100.00;69501.63;4989685;28;20045;-62
2022/10/01 05:12:36;;;;;;;4.13;3.83;;;;;;;-146.58;100.00;69501.63;4991385;28;20034;-62
2022/10/01 05:15:02;;;;;;;4.82;4.43;;;;;;;-146.58;100.00;69501.63;4989820;28;20419;-62
2022/10/01 05:17:31;;;;;;;4.15;3.85;;;;;;;-146.58;100.00;69501.63;4991741;28;20026;-62
2022/10/01 05:19:57;;;;;;;4.50;4.18;;;;;;;-146.58;100.00;69501.63;4990449;28;20450;-63
2022/10/01 05:22:22;;;;;;;4.70;4.30;;;;;;;-146.58;100.00;69501.63;4991396;28;20072;-62
2022/10/01 05:24:47;;;;;;;4.90;4.38;;;;;;;-146.58;100.00;69501.63;4992306;28;20109;-62
2022/10/01 05:27:13;;;;;;;3.88;3.58;;;;;;;-146.58;100.00;69501.63;4993728;28;20062;-62
2022/10/01 05:29:40;;;;;;;7.57;4.93;;;;;;;-146.58;100.00;69501.63;4993587;28;20042;-63
2022/10/01 05:32:06;;;;;;;3.72;3.42;;;;;;;-146.58;100.00;69501.63;4992959;28;20042;-62
2022/10/01 05:34:31;;;;;;;6.38;4.22;;;;;;;-146.58;100.00;69501.63;4993779;28;20046;-62
2022/10/01 05:36:57;;;;;;;4.40;4.00;;;;;;;-146.58;100.00;69501.63;4994932;28;20077;-64
2022/10/01 05:39:22;;;;;;;3.85;3.65;;;;;;;-146.58;100.00;69501.63;4992725;28;20039;-58
2022/10/01 05:41:48;;;;;;;5.07;4.68;;;;;;;-146.58;100.00;69501.63;4995382;28;20026;-58
2022/10/01 05:44:13;;;;;;;4.88;4.47;;;;;;;-146.58;100.00;69501.63;4993728;28;20529;-60
2022/10/01 05:46:38;;;;;;;4.53;4.22;;;;;;;-146.58;100.00;69501.63;4995041;28;20022;-60
2022/10/01 05:49:05;;;;;;;6.47;4.18;;;;;;;-146.58;100.00;69501.63;4993695;28;20045;-60
2022/10/01 05:51:31;;;;;;;5.07;4.68;;;;;;;-146.58;100.00;69501.63;4995236;28;20030;-60
2022/10/01 05:53:58;;;;;;;3.05;2.85;;;;;;;-146.58;100.00;69501.63;4992400;28;20050;-63
2022/10/01 05:56:24;;;;;;;3.45;3.20;;;;;;;-146.58;100.00;69501.63;4995021;28;20018;-62
2022/10/01 05:58:50;;;;;;;4.90;3.70;;;;;;;-146.58;100.00;69501.63;4994799;28;20077;-61
2022/10/01 06:01:15;;;;;;;3.85;3.55;;;;;;;-146.58;100.00;69501.63;4994389;28;20030;-60
2022/10/01 06:03:41;;;;;;;4.10;3.80;;;;;;;-146.58;100.00;69501.63;4993676;28;20081;-59
2022/10/01 06:06:06;;;;;;;5.07;4.25;;;;;;;-146.58;100.00;69501.63;4994319;28;20049;-60
2022/10/01 06:08:36;;;;;;;3.88;3.58;;;;;;;-146.58;100.00;69501.63;4992760;28;20556;-59
2022/10/01 06:11:03;;;;;;;4.80;3.72;;;;;;;-146.58;100.00;69501.63;4994649;28;20088;-59
2022/10/01 06:13:29;;;;;;;3.85;3.55;;;;;;;-146.58;100.00;69501.63;4991875;28;20054;-59
2022/10/01 06:15:55;;;;;;;5.38;3.60;;;;;;;-146.58;100.00;69501.63;4992702;28;20026;-61
2022/10/01 06:18:20;;;;;;;4.55;4.25;;;;;;;-146.58;100.00;69501.63;4992294;28;20520;-57
2022/10/01 06:20:45;;;;;;;5.15;4.65;;;;;;;-146.58;100.00;69501.63;4994321;28;20026;-59
2022/10/01 06:23:12;;;;;;;4.65;4.22;;;;;;;-146.58;100.00;69501.63;4991834;28;20019;-59
2022/10/01 06:25:42;;;;;;;5.50;3.60;;;;;;;-146.58;100.00;69501.63;4992494;28;20125;-59
2022/10/01 06:28:11;;;;;;;6.10;4.70;;;;;;;-146.58;100.00;69501.63;4994153;28;20037;-59
2022/10/01 06:30:37;;;;;;;;;;;;;;;-146.58;100.00;69501.63;4991459;28;20375;-59
2022/10/01 06:33:05;;;;;;;9.95;4.05;;;;;;;-146.58;100.00;69501.63;4993841;28;19913;-59
2022/10/01 06:35:31;;;;;;;7.72;4.10;;;;;;;-146.58;100.00;69501.63;4991805;28;20567;-59
2022/10/01 06:37:57;;;;;;;4.88;4.30;;;;;;;-146.58;100.00;69501.63;4992385;28;20065;-59
2022/10/01 06:40:23;;;;;;;4.38;3.97;;;;;;;-146.58;100.00;69501.63;4991354;28;20042;-59
2022/10/01 06:42:50;;;;;;;4.43;4.13;;;;;;;-146.58;100.00;69501.63;4993636;28;20030;-59
2022/10/01 06:45:17;;;;;;;4.80;3.70;;;;;;;-146.58;100.00;69501.63;4991003;28;20042;-59
2022/10/01 06:47:43;;;;;;;5.22;4.28;;;;;;;-146.58;100.00;69501.63;4992624;28;20041;-59
2022/10/01 06:50:08;;;;;;;5.97;4.43;;;;;;;-146.58;100.00;69501.63;4991340;28;20042;-59
2022/10/01 06:52:49;;;;;;;4.85;4.45;;;;;;;-146.58;100.00;69501.63;4991505;28;20116;-59
2022/10/01 06:55:27;;;;;;;4.78;4.38;;;;;;;-146.58;100.00;69501.63;4991638;28;20723;-59
2022/10/01 06:58:01;;;;;;;4.50;4.10;;;;;;;-146.58;100.00;69501.63;4993118;28;20018;-59
2022/10/01 07:00:28;;;;;;;4.03;3.72;;;;;;;-146.58;100.00;69501.63;4991068;28;20045;-59
2022/10/01 07:02:54;;;;;;;6.03;4.25;;;;;;;-146.58;100.00;69501.63;4993164;28;20029;-59
2022/10/01 07:05:20;;;;;;;5.25;4.85;;;;;;;-146.58;100.00;69501.63;4989955;28;20050;-59
2022/10/01 07:07:47;;;;;;;7.65;5.20;;;;;;;-146.58;100.00;69501.63;4991118;28;20508;-58
2022/10/01 07:10:14;;;;;;;4.63;4.32;;;;;;;-146.58;100.00;69501.63;4989598;28;20084;-59
2022/10/01 07:12:39;;;;;;;4.63;4.22;;;;;;;-146.58;100.00;69501.63;4992092;28;20026;-58
2022/10/01 07:15:06;;;;;;;6.72;4.63;;;;;;;-146.58;100.00;69501.63;4990213;28;20045;-58
2022/10/01 07:17:31;;;;;;;5.85;5.32;;;;;;;-146.58;100.00;69501.63;4990061;28;20037;-59
2022/10/01 07:19:57;;;;;;;4.28;3.90;;;;;;;-146.58;100.00;69501.63;5003849;28;20579;-59
2022/10/01 07:22:24;;;;;;;5.95;5.53;;;;;;;-146.58;100.00;69501.63;5011458;28;20022;-59
2022/10/01 07:24:49;;;;;;;5.05;4.63;;;;;;;-146.58;100.00;69501.63;4994982;28;20046;-59
2022/10/01 07:27:15;;;;;;;5.30;4.78;;;;;;;-146.58;100.00;69501.63;4992499;28;20026;-59
2022/10/01 07:29:43;;;;;;;5.70;5.03;;;;;;;-146.58;100.00;69501.63;4990800;28;20043;-59
2022/10/01 07:32:09;;;;;;;4.35;3.95;;;;;;;-146.58;100.00;69501.63;4991187;28;20049;-59
2022/10/01 07:34:38;;;;;;;6.65;4.68;;;;;;;-146.58;100.00;69501.63;4990715;28;20132;-59
2022/10/01 07:37:05;;;;;;;5.38;4.88;;;;;;;-146.58;100.00;69501.63;4990313;28;20060;-59
2022/10/01 07:39:30;;;;;;;5.30;4.80;;;;;;;-146.58;100.00;69501.63;4993639;28;20042;-59
2022/10/01 07:41:56;;;;;;;4.28;3.97;;;;;;;-146.58;100.00;69501.63;4994330;28;20041;-59
2022/10/01 07:44:21;;;;;;;10.43;5.57;;;;;;;-146.58;100.00;69501.63;4990336;28;20046;-59
2022/10/01 07:46:47;;;;;;;4.43;4.03;;;;;;;-146.58;100.00;69501.63;4990839;28;20026;-59
2022/10/01 07:49:12;;;;;;;5.32;4.93;;;;;;;-146.58;100.00;69501.63;4990830;28;20046;-59
2022/10/01 07:51:38;;;;;;;5.55;5.03;;;;;;;-146.58;100.00;69501.63;4992805;28;20033;-58
2022/10/01 07:54:04;;;;;;;4.70;4.30;;;;;;;-146.58;100.00;69501.63;4990763;28;20053;-58
2022/10/01 07:56:30;;;;;;;5.22;4.78;;;;;;;-146.58;100.00;69501.63;4992966;28;20186;-58
2022/10/01 07:58:57;;;;;;;5.80;5.30;;;;;;;-146.58;100.00;69501.63;4991189;28;20030;-58
2022/10/01 08:01:23;;;;;;;8.25;7.45;;;;;;;-146.58;100.00;69501.63;4991853;28;20018;-58
2022/10/01 08:03:49;;;;;;;8.88;7.63;;;;;;;-146.58;100.00;69501.63;4991263;28;20034;-58
2022/10/01 08:06:15;;;;;;;7.80;5.65;;;;;;;-146.58;100.00;69501.63;4992544;28;20397;-58
2022/10/01 08:08:40;;;;;;;5.35;4.78;;;;;;;-146.58;100.00;69501.63;4990715;28;20034;-58
2022/10/01 08:11:08;;;;;;;19.08;9.02;;;;;;;-146.58;100.00;69501.63;4992049;28;20077;-58
2022/10/01 08:13:34;;;;;;;8.02;6.68;;;;;;;-146.58;100.00;69501.63;4990992;28;20163;-58
2022/10/01 08:16:02;;;;;;;9.25;6.38;;;;;;;-146.58;100.00;69501.63;4991717;28;20030;-59
2022/10/01 08:18:27;;;;;;;9.05;6.20;;;;;;;-146.58;100.00;69501.63;4990696;28;20113;-58
2022/10/01 08:20:53;;;;;;;9.38;7.60;;;;;;;-146.58;100.00;69501.63;4992498;28;20026;-58
2022/10/01 08:23:19;;;;;;;10.95;6.43;;;;;;;-146.58;100.00;69501.63;4990090;28;20489;-58
2022/10/01 08:25:46;;;;;;;7.43;6.72;;;;;;;-146.58;100.00;69501.63;4992305;28;20018;-59
2022/10/01 08:28:12;;;;;;;8.95;7.07;;;;;;;-146.58;100.00;69501.63;4992311;28;20063;-58
2022/10/01 08:30:38;;;;;;;8.98;6.32;;;;;;;-146.58;100.00;69501.63;4990035;28;20514;-58
2022/10/01 08:33:04;;;;;;;15.90;7.78;;;;;;;-146.58;100.00;69501.63;4991110;28;20088;-58
2022/10/01 08:35:30;;;;;;;8.43;6.97;;;;;;;-146.58;100.00;69501.63;4989375;28;20038;-58
2022/10/01 08:38:03;;;;;;;9.00;7.43;;;;;;;-146.58;100.00;69501.63;4990921;28;20033;-58
2022/10/01 08:40:31;;;;;;;11.00;7.53;;;;;;;-146.58;100.00;69501.63;4999646;28;20076;-59
2022/10/01 08:43:05;;;;;;;9.50;7.35;;;;;;;-146.58;100.00;69501.63;5004713;28;20517;-58
2022/10/01 08:45:39;;;;;;;7.88;7.28;;;;;;;-146.58;100.00;69501.63;4971430;28;20477;-58
2022/10/01 08:48:12;;;;;;;12.25;8.57;;;;;;;-146.58;100.00;69501.63;4972247;28;20030;-58
2022/10/01 08:50:51;;;;;;;10.88;8.73;;;;;;;-146.58;100.00;69501.63;4988999;28;20046;-58
2022/10/01 08:53:27;;;;;;;16.40;9.00;;;;;;;-146.58;100.00;69501.63;4980496;28;20026;-58
2022/10/01 08:55:54;;;;;;;11.27;9.52;;;;;;;-146.58;100.00;69501.63;4990777;28;20508;-58
2022/10/01 08:58:27;;;;;;;10.75;6.88;;;;;;;-146.58;100.00;69501.63;4989491;28;20036;-57
2022/10/01 09:00:53;;;;;;;11.70;9.13;;;;;;;-146.58;100.00;69501.63;4991430;28;20394;-58
2022/10/01 09:03:18;;;;;;;11.63;9.32;;;;;;;-146.58;100.00;69501.63;4988898;28;20034;-58
2022/10/01 09:06:16;;;;;;;10.70;8.80;;;;;;;-146.58;100.00;69501.63;4990989;28;20030;-58
2022/10/01 09:09:00;;;;;;;16.23;10.13;;;;;;;-146.58;100.00;69501.63;4990161;28;20045;-58
2022/10/01 09:11:44;;;;;;;16.08;9.50;;;;;;;-146.58;100.00;69501.63;4991173;28;20027;-58
2022/10/01 09:14:19;;;;;;;19.88;10.88;;;;;;;-146.58;100.00;69501.63;4989372;28;20050;-58
2022/10/01 09:17:05;;;;;;;15.27;6.68;;;;;;;-146.58;100.00;69501.63;4991304;28;20080;-58
2022/10/01 09:20:12;;;;;;;11.90;7.18;;;;;;;-146.58;100.00;69501.63;4989943;28;20383;-58
2022/10/01 09:22:41;;;;;;;15.45;6.47;;;;;;;-146.58;100.00;69501.63;4990658;28;20043;-58
2022/10/01 09:25:20;;;;;;;11.68;7.38;;;;;;;-146.58;100.00;69501.63;4989544;28;20038;-58
2022/10/01 09:27:45;;;;;;;;;;;;;;;-146.58;100.00;69501.63;4991805;28;20549;-58
2022/10/01 09:30:18;;;;;;;8.40;6.27;;;;;;;-146.58;100.00;69501.63;4989258;28;20044;-58
2022/10/01 09:32:45;;;;;;;15.32;7.53;;;;;;;-146.58;100.00;69501.63;4988584;28;20474;-58
2022/10/01 09:35:42;;;;;;;8.27;6.15;;;;;;;-146.58;100.00;69501.63;4988738;28;20051;-58
2022/10/01 09:38:16;;;;;;;12.32;6.60;;;;;;;-146.58;100.00;69501.63;4991048;28;20018;-58
2022/10/01 09:40:53;;;;;;;11.05;6.18;;;;;;;-146.58;100.00;69501.63;4989829;28;20046;-58
2022/10/01 09:43:20;;;;;;;14.13;6.88;;;;;;;-146.58;100.00;69501.63;4989305;28;20106;-58
2022/10/01 09:45:46;;;;;;;11.63;6.10;;;;;;;-146.58;100.00;69501.63;4991342;28;20037;-58
2022/10/01 09:48:23;;;;;;;14.88;6.72;;;;;;;-146.58;100.00;69501.63;4990734;28;20030;-58
2022/10/01 09:50:54;;;;;;;11.38;6.95;;;;;;;-146.58;100.00;69501.63;4989502;28;20101;-58
2022/10/01 09:53:58;;;;;;;7.30;6.25;;;;;;;-146.58;100.00;69501.63;4989300;28;20488;-58
2022/10/01 09:56:37;;;;;;;15.15;7.60;;;;;;;-146.58;100.00;69501.63;4988167;28;20525;-58
2022/10/01 09:59:14;;;;;;;8.27;5.95;;;;;;;-146.58;100.00;69501.63;4988628;28;20053;-58
2022/10/01 10:01:45;;;;;;;11.70;7.22;;;;;;;-146.58;100.00;69501.63;4991184;28;20026;-58
2022/10/01 10:04:11;;;;;;;8.63;6.07;;;;;;;-146.58;100.00;69501.63;4989213;28;20066;-58
2022/10/01 10:06:38;;;;;;;11.05;5.55;;;;;;;-146.58;100.00;69501.63;4990671;28;20508;-58
2022/10/01 10:09:03;;;;;;;11.20;7.13;;;;;;;-146.58;100.00;69501.63;4989564;28;20038;-58
2022/10/01 10:11:31;;;;;;;9.27;8.00;;;;;;;-146.58;100.00;69501.63;4994458;28;20041;-57
2022/10/01 10:13:59;;;;;;;9.27;6.00;;;;;;;-146.58;100.00;69501.63;4992644;28;20564;-58
2022/10/01 10:16:33;;;;;;;7.28;4.40;;;;;;;-146.58;100.00;69501.63;4991940;28;20046;-58
2022/10/01 10:19:08;;;;;;;5.18;4.68;;;;;;;-146.58;100.00;69501.63;4991892;28;20513;-58
2022/10/01 10:21:33;;;;;;;5.57;4.60;;;;;;;-146.58;100.00;69501.63;4993860;28;20032;-58
2022/10/01 10:24:05;;;;;;;6.32;3.58;;;;;;;-146.58;100.00;69501.63;4991323;28;20413;-58
2022/10/01 10:26:33;;;;;;;10.82;4.03;;;;;;;-146.58;100.00;69501.63;4994026;28;20040;-59
2022/10/01 10:29:01;;;;;;;3.95;2.05;;;;;;;-146.58;100.00;69501.63;4992739;28;20084;-58
2022/10/01 10:31:34;;;;;;;2.45;1.90;;;;;;;-146.58;100.00;69501.63;4993857;28;20042;-57
2022/10/01 10:34:41;;;;;;;7.50;4.00;;;;;;;-146.58;100.00;69501.63;4999184;28;20037;-58
2022/10/01 10:37:15;;;;;;;3.08;2.78;;;;;;;-146.58;100.00;69501.63;4990945;28;20050;-58
2022/10/01 10:39:46;;;;;;;6.18;3.33;;;;;;;-146.58;100.00;69501.63;4978172;28;20062;-59
2022/10/01 10:42:14;;;;;;;6.15;3.78;;;;;;;-146.58;100.00;69501.63;4984094;28;20053;-58
2022/10/01 10:44:42;;;;;;;;;;;;;;;-146.58;100.00;69501.63;5012515;28;20049;-59
2022/10/01 10:47:12;;;;;;;4.80;4.20;;;;;;;-146.58;100.00;69501.63;5013756;28;19909;-59
2022/10/01 10:50:01;;;;;;;5.20;4.53;;;;;;;-146.58;100.00;69501.63;5011906;28;20034;-59
2022/10/01 10:52:32;;;;;;;;;;;;;;;-146.58;100.00;69501.63;4974969;28;20129;-58
2022/10/01 10:55:01;;;;;;;5.43;4.45;;;;;;;-146.58;100.00;69501.63;4972953;28;19922;-59
2022/10/01 10:57:29;;;;;;;6.75;5.00;;;;;;;-146.58;100.00;69501.63;4974074;28;20085;-58
2022/10/01 10:59:59;;;;;;;8.05;5.15;;;;;;;-146.58;100.00;69501.63;4972525;28;20043;-58
2022/10/01 11:02:29;;;;;;;6.78;5.57;;;;;;;-146.58;100.00;69501.63;4973526;28;20034;-58
2022/10/01 11:05:18;;;;;;;8.65;4.47;;;;;;;-146.58;100.00;69501.63;4989902;28;20125;-58
2022/10/01 11:07:45;;;;;;;8.23;4.20;;;;;;;-146.58;100.00;69501.63;4992669;28;20529;-58
2022/10/01 11:10:22;;;;;;;5.35;3.90;;;;;;;-146.58;100.00;69501.63;4990911;28;20061;-59
2022/10/01 11:13:07;;;;;;;7.70;4.57;;;;;;;-146.58;100.00;69501.63;4992202;28;20113;-58
2022/10/01 11:16:02;;;;;;;6.80;4.68;;;;;;;-146.58;100.00;69501.63;4991567;28;20636;-58
2022/10/01 11:19:00;;;;;;;6.75;3.45;;;;;;;-146.58;100.00;69501.63;4991413;28;20026;-58
2022/10/01 11:21:53;;;;;;;8.35;3.80;;;;;;;-146.58;100.00;69501.63;4975006;28;20042;-58